Ketchikan International Airport
PAKT : now visible

Airfield :











YOU CAN JOIN US ON...

 
LOGIN :

Register | Disclaimer

   EN    FR    IT 

 









Legend :    VFR   Marginal VFR   IFR   Intensive IFR   Very Intensive IFR
Visi :
Ceiling :
>= 8 km
>= 3000ft
5 to 8 km
1000 to 3000 ft
1500m to 5 km
500 to 1000 ft
800 to 1500m
200 to 500 ft
< 800m
< 200 ft
Symbols :   Thunderstorms  Fog  Heavy snow  Heavy precipitations  Wind > 20 kt






- Airport Elevation : 89 ft
- IATA code : KTN


PAKT - Ketchikan International

CURRENT METAR :
  • 100953Z AUTO 30005KT 10SM CLR 02/00 A3031 RMK SLP264 T00170000 TSNO VIA AUTODIAL

EXPIRED METARs :
  • 100853Z AUTO 30004KT 10SM CLR 01/M01 A3030 RMK SLP262 T00111006 400890000 53005 TSNO VIA AUTODIAL
  • 100753Z AUTO 00000KT 10SM CLR 01/M01 A3029 RMK SLP258 T00111011 TSNO VIA AUTODIAL

TAF PAKT
Valid from the 10 at 06:00 until the 11 at 06:00 UTC


100526Z 1006/1106 30004KT P6SM SKC
FM101700 32012KT P6SM SKC AMD LTD TO CLD VIS AND WIND 1006/1015



MET'MAP, your aeronautical weather chart ! - Copyright ORBIFLY December 2007 - Disclaimer

ORBIFLY MET'MAP TEAM :

Programming & Development : Alexandra Zaïnal
Concept & original design : Baudouin d'Aumeries
Assistance for programming : Marc-Olivier Méhu
Technical & hardware support : Manuel Goepfert

Contact : metmap@orbifly.com




SOURCES & CREDITS :

   NOAA       Earth
Advisory